Welcome to Northern Hawkes Bay. New Zealand.
PWS Header
      nz Flag



Hit Counter


W3C Valid W3C Valid logo


    Wairoa

Select any of the Stations below to visit their websites.










Historic Data from Weather Underground
Select the location of interest below. Wairoa is the default. Please have patience, this Data is slow to load in.
Northern Hawkes Bay Historical Data
Daily Summary for July 14, 2017 Units:  Metric    English   Both
« Previous Day
Next Day »
Daily Weekly Monthly Yearly Custom
  High: Low: Average:
Temperature: 11.8 °C 6.7 °C 10.1 °C
Dew Point: 10.1 °C 5.9 °C 8.1 °C
Humidity: 98% 69% 88%
Wind Speed: 47.9km/h 1.1km/h 23.3km/h
Wind Gust: 79.5km/h - -
Wind- - SSW
Pressure: 1016.5 hPa 1002.9 hPa -
Precipitation: 73.9 mm    
Historical Graphs
 
 
Tabular Data for July 14, 2017
Time Temperature Dew Point Pressure Wind Wind Speed Wind Gust Humidity Rainfall Rate (Hourly) solar
00:08 8.0 °C 7.4 °C 1007.7 hPa West 21.9 km/h 28.0 km/h 96% 2.8 mm 0 W/m2
00:13 7.9 °C 7.3 °C 1007.7 hPa WSW 14.8 km/h 28.0 km/h 96% 2.8 mm 0 W/m2
00:18 7.9 °C 7.3 °C 1007.7 hPa West 14.8 km/h 28.0 km/h 96% 2.8 mm 0 W/m2
00:23 7.8 °C 7.2 °C 1007.7 hPa West 13.4 km/h 25.6 km/h 96% 2.3 mm 0 W/m2
00:28 7.8 °C 7.1 °C 1007.7 hPa West 12.2 km/h 25.6 km/h 95% 2.0 mm 0 W/m2
00:33 7.7 °C 6.9 °C 1007.7 hPa West 13.4 km/h 24.5 km/h 95% 1.5 mm 0 W/m2
00:38 7.6 °C 6.8 °C 1007.7 hPa WSW 15.8 km/h 24.5 km/h 95% 1.3 mm 0 W/m2
00:43 7.5 °C 6.8 °C 1007.7 hPa WSW 7.2 km/h 24.5 km/h 95% 0.5 mm 0 W/m2
00:48 7.4 °C 6.7 °C 1007.7 hPa WSW 13.4 km/h 24.5 km/h 95% 0.5 mm 0 W/m2
00:53 7.5 °C 6.9 °C 1007.3 hPa West 15.8 km/h 23.3 km/h 96% 0.5 mm 0 W/m2
00:58 7.4 °C 6.8 °C 1007.3 hPa West 12.2 km/h 21.9 km/h 96% 0.5 mm 0 W/m2
01:03 7.4 °C 6.8 °C 1007.3 hPa WSW 7.2 km/h 21.9 km/h 96% 0.5 mm 0 W/m2
01:08 7.4 °C 6.7 °C 1007.7 hPa West 18.3 km/h 21.9 km/h 95% 0.5 mm 0 W/m2
01:13 7.4 °C 6.7 °C 1007.3 hPa WSW 7.2 km/h 21.9 km/h 95% 0.5 mm 0 W/m2
01:18 7.4 °C 6.7 °C 1007.3 hPa WSW 8.7 km/h 18.3 km/h 95% 0.5 mm 0 W/m2
01:23 7.4 °C 6.7 °C 1007.3 hPa West 11.1 km/h 18.3 km/h 95% 0.5 mm 0 W/m2
01:28 7.4 °C 6.7 °C 1007.3 hPa WNW 6.1 km/h 18.3 km/h 95% 0.5 mm 0 W/m2
01:33 7.4 °C 6.7 °C 1007.3 hPa WNW 7.2 km/h 18.3 km/h 95% 0.5 mm 0 W/m2
01:38 7.4 °C 6.7 °C 1007.3 hPa WNW 2.6 km/h 15.8 km/h 95% 1.0 mm 0 W/m2
01:43 7.4 °C 6.7 °C 1007.3 hPa NW 2.6 km/h 9.7 km/h 95% 0.5 mm 0 W/m2
01:48 7.3 °C 6.6 °C 1007.3 hPa NW 1.1 km/h 7.2 km/h 95% 0.5 mm 0 W/m2
01:53 7.0 °C 6.1 °C 1007.3 hPa NNW 5.0 km/h 7.2 km/h 94% 0.3 mm 0 W/m2
01:58 6.8 °C 6.1 °C 1007.3 hPa NW 2.6 km/h 7.2 km/h 95% 0.3 mm 0 W/m2
02:03 6.8 °C 6.1 °C 1007.3 hPa NW 2.6 km/h 8.7 km/h 95% 0.3 mm 0 W/m2
02:08 6.7 °C 5.9 °C 1007.3 hPa WNW 1.1 km/h 8.7 km/h 95% 0.3 mm 0 W/m2
02:13 6.7 °C 6.1 °C 1007.0 hPa NW 2.6 km/h 6.1 km/h 96% 0.3 mm 0 W/m2
02:18 6.8 °C 6.2 °C 1007.3 hPa NNW 3.5 km/h 7.2 km/h 96% 0.3 mm 0 W/m2
02:23 6.9 °C 6.3 °C 1007.0 hPa NW 5.0 km/h 7.2 km/h 96% 0.3 mm 0 W/m2
02:28 6.9 °C 6.3 °C 1007.0 hPa NW 5.0 km/h 8.7 km/h 96% 0.3 mm 0 W/m2
02:33 7.0 °C 6.3 °C 1007.0 hPa NW 3.5 km/h 9.7 km/h 95% 0.5 mm 0 W/m2
02:38 7.2 °C 6.6 °C 1006.7 hPa WNW 5.0 km/h 9.7 km/h 96% 0.3 mm 0 W/m2
02:43 7.3 °C 6.7 °C 1006.7 hPa WNW 3.5 km/h 8.7 km/h 96% 0.5 mm 0 W/m2
02:48 7.3 °C 6.7 °C 1006.7 hPa WNW 3.5 km/h 8.7 km/h 96% 0.5 mm 0 W/m2
02:53 7.2 °C 6.4 °C 1006.7 hPa NW 3.5 km/h 12.2 km/h 95% 0.5 mm 0 W/m2
02:58 7.2 °C 6.4 °C 1006.7 hPa WNW 3.5 km/h 12.2 km/h 95% 0.5 mm 0 W/m2
03:03 7.3 °C 6.6 °C 1006.7 hPa West 3.5 km/h 8.7 km/h 95% 0.5 mm 0 W/m2
03:08 7.4 °C 6.8 °C 1006.7 hPa NW 3.5 km/h 8.7 km/h 96% 1.0 mm 0 W/m2
03:13 7.2 °C 6.4 °C 1006.3 hPa NNE 6.1 km/h 12.2 km/h 95% 1.0 mm 0 W/m2
03:18 7.2 °C 6.4 °C 1006.3 hPa North 2.6 km/h 12.2 km/h 95% 1.0 mm 0 W/m2
03:23 7.2 °C 6.4 °C 1006.0 hPa NNW 5.0 km/h 17.2 km/h 95% 1.3 mm 0 W/m2
03:28 7.2 °C 6.4 °C 1006.3 hPa NW 7.2 km/h 17.2 km/h 95% 1.3 mm 0 W/m2
03:33 7.5 °C 6.9 °C 1006.0 hPa West 8.7 km/h 13.4 km/h 96% 1.3 mm 0 W/m2
03:38 7.6 °C 7.0 °C 1006.0 hPa NW 3.5 km/h 13.4 km/h 96% 1.0 mm 0 W/m2
03:43 8.4 °C 7.9 °C 1005.6 hPa West 11.1 km/h 25.6 km/h 97% 1.3 mm 0 W/m2
03:48 8.8 °C 8.5 °C 1005.6 hPa West 8.7 km/h 25.6 km/h 98% 1.3 mm 0 W/m2
03:53 8.9 °C 8.4 °C 1005.6 hPa West 6.1 km/h 19.5 km/h 97% 1.3 mm 0 W/m2
03:58 9.0 °C 8.4 °C 1005.3 hPa West 8.7 km/h 20.9 km/h 96% 1.3 mm 0 W/m2
04:03 9.2 °C 8.6 °C 1005.6 hPa West 11.1 km/h 20.9 km/h 96% 1.3 mm 0 W/m2
04:08 9.4 °C 8.8 °C 1005.3 hPa WSW 24.5 km/h 31.7 km/h 96% 1.0 mm 0 W/m2
04:13 9.5 °C 8.9 °C 1005.0 hPa WSW 23.3 km/h 31.7 km/h 96% 1.0 mm 0 W/m2
04:18 9.5 °C 8.7 °C 1005.0 hPa WSW 14.8 km/h 29.4 km/h 95% 1.0 mm 0 W/m2
04:23 9.5 °C 8.7 °C 1005.3 hPa WSW 13.4 km/h 28.0 km/h 95% 1.0 mm 0 W/m2
04:28 9.5 °C 8.7 °C 1005.0 hPa WSW 11.1 km/h 27.0 km/h 95% 1.0 mm 0 W/m2
04:33 9.5 °C 8.7 °C 1004.6 hPa West 15.8 km/h 30.6 km/h 95% 1.0 mm 0 W/m2
04:38 9.6 °C 8.7 °C 1005.0 hPa WSW 13.4 km/h 30.6 km/h 94% 1.0 mm 0 W/m2
04:43 9.8 °C 8.7 °C 1005.0 hPa WSW 17.2 km/h 42.8 km/h 93% 0.5 mm 0 W/m2
04:48 9.7 °C 8.4 °C 1005.0 hPa West 21.9 km/h 42.8 km/h 92% 0.5 mm 0 W/m2
04:53 9.4 °C 8.3 °C 1004.6 hPa WNW 12.2 km/h 31.7 km/h 93% 0.5 mm 0 W/m2
04:58 9.4 °C 8.3 °C 1005.0 hPa WNW 20.9 km/h 37.8 km/h 93% 1.0 mm 0 W/m2
05:03 9.4 °C 8.5 °C 1004.6 hPa West 12.2 km/h 37.8 km/h 94% 1.0 mm 0 W/m2
05:08 9.4 °C 8.5 °C 1005.0 hPa WSW 14.8 km/h 36.7 km/h 94% 1.0 mm 0 W/m2
05:26 9.8 °C 8.9 °C 1004.6 hPa WSW 15.8 km/h 35.6 km/h 94% 0.3 mm 0 W/m2
05:31 9.9 °C 9.0 °C 1004.6 hPa WSW 31.7 km/h 47.9 km/h 94% 0.3 mm 0 W/m2
05:36 9.9 °C 9.0 °C 1004.3 hPa WSW 25.6 km/h 47.9 km/h 94% 0.3 mm 0 W/m2
05:41 9.6 °C 8.2 °C 1004.3 hPa WSW 24.5 km/h 47.9 km/h 91% 0.5 mm 0 W/m2
05:46 9.7 °C 8.8 °C 1003.9 hPa WSW 19.5 km/h 40.4 km/h 94% 1.0 mm 0 W/m2
05:51 9.6 °C 8.7 °C 1003.9 hPa West 23.3 km/h 39.3 km/h 94% 1.0 mm 0 W/m2
05:56 9.5 °C 8.7 °C 1004.3 hPa WNW 15.8 km/h 39.3 km/h 95% 0.5 mm 0 W/m2
06:01 9.5 °C 8.9 °C 1004.6 hPa West 20.9 km/h 36.7 km/h 96% 1.5 mm 0 W/m2
06:06 9.6 °C 9.0 °C 1004.6 hPa SSW 28.0 km/h 40.4 km/h 96% 1.5 mm 0 W/m2
06:11 9.7 °C 8.9 °C 1004.6 hPa SSW 12.2 km/h 40.4 km/h 95% 1.5 mm 0 W/m2
06:16 9.7 °C 8.8 °C 1004.3 hPa SW 14.8 km/h 36.7 km/h 94% 1.5 mm 0 W/m2
06:21 9.9 °C 9.0 °C 1004.3 hPa SW 2.6 km/h 28.0 km/h 94% 1.5 mm 0 W/m2
06:26 9.9 °C 8.8 °C 1003.9 hPa SSW 12.2 km/h 20.9 km/h 93% 1.5 mm 0 W/m2
06:31 10.1 °C 8.6 °C 1004.3 hPa South 13.4 km/h 19.5 km/h 90% 1.8 mm 0 W/m2
06:36 10.3 °C 8.6 °C 1004.6 hPa South 14.8 km/h 29.4 km/h 89% 2.0 mm 0 W/m2
06:41 10.4 °C 8.2 °C 1003.9 hPa South 23.3 km/h 31.7 km/h 86% 1.8 mm 0 W/m2
06:46 10.5 °C 8.3 °C 1003.9 hPa South 14.8 km/h 31.7 km/h 86% 1.8 mm 0 W/m2
06:51 10.6 °C 8.7 °C 1003.9 hPa SSW 23.3 km/h 31.7 km/h 88% 2.0 mm 0 W/m2
06:56 10.6 °C 8.9 °C 1003.6 hPa SSW 14.8 km/h 31.7 km/h 89% 2.0 mm 0 W/m2
07:01 10.4 °C 9.0 °C 1003.6 hPa SSW 18.3 km/h 42.8 km/h 91% 2.3 mm 0 W/m2
07:06 10.4 °C 9.3 °C 1003.9 hPa South 23.3 km/h 42.8 km/h 93% 2.8 mm 0 W/m2
07:11 10.3 °C 9.1 °C 1003.9 hPa South 20.9 km/h 39.3 km/h 92% 3.0 mm 0 W/m2
07:16 10.5 °C 8.9 °C 1003.9 hPa South 23.3 km/h 46.5 km/h 90% 3.0 mm 0 W/m2
07:21 10.7 °C 8.8 °C 1003.6 hPa South 28.0 km/h 46.5 km/h 88% 3.3 mm 0 W/m2
07:26 10.7 °C 8.8 °C 1003.9 hPa South 29.4 km/h 46.5 km/h 88% 3.6 mm 0 W/m2
07:31 10.8 °C 9.2 °C 1003.9 hPa South 23.3 km/h 42.8 km/h 90% 3.6 mm 0 W/m2
07:36 10.7 °C 9.4 °C 1003.9 hPa South 18.3 km/h 42.8 km/h 92% 3.6 mm 0 W/m2
07:41 10.7 °C 9.8 °C 1003.6 hPa South 20.9 km/h 42.8 km/h 94% 3.8 mm 0 W/m2
07:46 10.6 °C 9.7 °C 1003.3 hPa South 20.9 km/h 45.4 km/h 94% 4.6 mm 0 W/m2
07:51 10.4 °C 9.6 °C 1003.6 hPa South 24.5 km/h 45.4 km/h 95% 5.1 mm 0 W/m2
07:56 10.6 °C 10.0 °C 1003.6 hPa SSE 18.3 km/h 46.5 km/h 96% 6.1 mm 0 W/m2
08:01 10.2 °C 9.6 °C 1003.6 hPa SSE 18.3 km/h 46.5 km/h 96% 5.3 mm 0 W/m2
08:06 10.6 °C 10.0 °C 1003.3 hPa South 29.4 km/h 46.5 km/h 96% 5.1 mm 0 W/m2
08:11 11.1 °C 10.0 °C 1002.9 hPa South 27.0 km/h 46.5 km/h 93% 4.8 mm 2 W/m2
08:16 11.4 °C 10.0 °C 1003.3 hPa South 37.8 km/h 55.0 km/h 91% 4.8 mm 0 W/m2
08:21 11.2 °C 9.8 °C 1003.3 hPa South 34.3 km/h 60.2 km/h 91% 5.1 mm 0 W/m2
08:26 11.3 °C 9.9 °C 1003.6 hPa South 37.8 km/h 60.2 km/h 91% 5.1 mm 8 W/m2
08:31 11.4 °C 10.0 °C 1003.9 hPa South 21.9 km/h 66.3 km/h 91% 4.8 mm 1 W/m2
08:36 11.1 °C 9.8 °C 1003.6 hPa South 45.4 km/h 66.3 km/h 92% 5.3 mm 0 W/m2
08:41 11.0 °C 9.6 °C 1003.6 hPa SSE 36.7 km/h 75.9 km/h 91% 5.3 mm 3 W/m2
08:46 11.2 °C 9.4 °C 1003.9 hPa South 35.6 km/h 75.9 km/h 89% 4.8 mm 0 W/m2
08:52 11.2 °C 9.4 °C 1003.9 hPa SW 41.7 km/h 61.1 km/h 89% 3.3 mm 1 W/m2
08:57 11.1 °C 9.5 °C 1003.9 hPa South 36.7 km/h 55.0 km/h 90% 3.8 mm 1 W/m2
09:02 10.9 °C 9.8 °C 1003.9 hPa South 37.8 km/h 66.3 km/h 93% 5.3 mm 0 W/m2
09:08 11.2 °C 10.1 °C 1003.9 hPa SSE 36.7 km/h 66.3 km/h 93% 6.3 mm 5 W/m2
09:13 11.5 °C 9.9 °C 1004.3 hPa SSE 35.6 km/h 77.1 km/h 90% 8.6 mm 9 W/m2
09:18 11.5 °C 9.8 °C 1004.3 hPa SSE 30.6 km/h 77.1 km/h 89% 7.9 mm 15 W/m2
09:23 11.6 °C 9.7 °C 1004.6 hPa SSE 34.3 km/h 69.8 km/h 88% 7.9 mm 23 W/m2
09:28 11.4 °C 9.3 °C 1004.6 hPa SSE 47.9 km/h 62.3 km/h 87% 8.6 mm 22 W/m2
09:33 11.5 °C 9.2 °C 1004.6 hPa SSE 31.7 km/h 62.3 km/h 86% 6.9 mm 12 W/m2
09:38 11.4 °C 9.7 °C 1005.0 hPa SSE 36.7 km/h 61.1 km/h 89% 7.6 mm 20 W/m2
09:43 11.2 °C 9.6 °C 1005.0 hPa SSE 30.6 km/h 57.6 km/h 90% 7.9 mm 16 W/m2
09:48 11.1 °C 9.2 °C 1005.3 hPa SSE 27.0 km/h 57.6 km/h 88% 7.6 mm 9 W/m2
09:53 10.9 °C 9.2 °C 1005.3 hPa South 37.8 km/h 56.2 km/h 89% 7.9 mm 10 W/m2
09:58 10.9 °C 9.0 °C 1005.3 hPa South 34.3 km/h 64.8 km/h 88% 7.9 mm 6 W/m2
10:03 10.9 °C 9.5 °C 1006.0 hPa SSE 20.9 km/h 64.8 km/h 91% 7.1 mm 8 W/m2
10:08 10.9 °C 9.8 °C 1006.0 hPa SSE 31.7 km/h 57.6 km/h 93% 5.3 mm 10 W/m2
10:13 10.9 °C 10.0 °C 1006.0 hPa South 39.3 km/h 61.1 km/h 94% 6.1 mm 16 W/m2
10:18 10.9 °C 10.0 °C 1006.0 hPa South 29.4 km/h 61.1 km/h 94% 7.1 mm 18 W/m2
10:37 10.0 °C 8.9 °C 1006.3 hPa SSE 24.5 km/h 48.9 km/h 93% 8.6 mm 20 W/m2
10:42 10.2 °C 9.3 °C 1006.7 hPa SSE 29.4 km/h 50.0 km/h 94% 8.6 mm 12 W/m2
10:47 10.4 °C 9.5 °C 1006.7 hPa SSE 41.7 km/h 73.4 km/h 94% 8.6 mm 8 W/m2
10:52 10.0 °C 8.8 °C 1006.7 hPa SSE 31.7 km/h 73.4 km/h 92% 9.7 mm 12 W/m2
10:57 10.1 °C 9.0 °C 1006.7 hPa South 29.4 km/h 66.3 km/h 93% 8.9 mm 16 W/m2
11:02 10.2 °C 9.3 °C 1006.7 hPa South 31.7 km/h 52.6 km/h 94% 9.7 mm 12 W/m2
11:07 10.0 °C 9.1 °C 1006.7 hPa South 31.7 km/h 56.2 km/h 94% 10.2 mm 17 W/m2
11:12 9.9 °C 9.0 °C 1006.7 hPa South 33.1 km/h 58.7 km/h 94% 10.2 mm 16 W/m2
11:17 10.5 °C 9.6 °C 1006.7 hPa SSE 35.6 km/h 58.7 km/h 94% 9.7 mm 20 W/m2
11:22 10.3 °C 9.1 °C 1006.7 hPa SSE 34.3 km/h 60.2 km/h 92% 9.7 mm 20 W/m2
11:27 10.1 °C 8.4 °C 1007.0 hPa SSE 34.3 km/h 60.2 km/h 89% 9.4 mm 17 W/m2
11:32 10.1 °C 8.4 °C 1007.3 hPa SSE 25.6 km/h 63.7 km/h 89% 9.7 mm 10 W/m2
11:37 10.1 °C 8.7 °C 1007.7 hPa SSE 21.9 km/h 63.7 km/h 91% 8.9 mm 11 W/m2
11:42 9.8 °C 8.6 °C 1007.3 hPa SSE 30.6 km/h 50.0 km/h 92% 8.9 mm 7 W/m2
11:47 9.5 °C 8.1 °C 1007.3 hPa South 18.3 km/h 42.8 km/h 91% 8.4 mm 4 W/m2
11:52 9.5 °C 8.3 °C 1007.3 hPa South 13.4 km/h 40.4 km/h 92% 8.4 mm 8 W/m2
11:57 10.1 °C 9.0 °C 1007.0 hPa South 33.1 km/h 50.0 km/h 93% 8.6 mm 4 W/m2
12:02 10.6 °C 9.5 °C 1006.7 hPa South 46.5 km/h 63.7 km/h 93% 8.6 mm 8 W/m2
12:07 10.5 °C 9.3 °C 1007.0 hPa South 39.3 km/h 63.7 km/h 92% 8.6 mm 6 W/m2
12:12 10.4 °C 9.3 °C 1007.0 hPa South 31.7 km/h 63.7 km/h 93% 8.6 mm 4 W/m2
12:17 10.4 °C 9.3 °C 1007.0 hPa South 36.7 km/h 56.2 km/h 93% 9.9 mm 8 W/m2
12:22 10.5 °C 9.4 °C 1006.7 hPa South 37.8 km/h 61.1 km/h 93% 10.9 mm 17 W/m2
12:27 10.5 °C 9.3 °C 1007.0 hPa South 34.3 km/h 63.7 km/h 92% 11.4 mm 14 W/m2
12:32 10.5 °C 9.3 °C 1007.0 hPa South 39.3 km/h 79.5 km/h 92% 13.0 mm 13 W/m2
12:37 10.5 °C 9.3 °C 1007.3 hPa South 35.6 km/h 79.5 km/h 92% 13.5 mm 8 W/m2
12:42 10.4 °C 9.2 °C 1007.3 hPa South 36.7 km/h 63.7 km/h 92% 13.2 mm 15 W/m2
12:46 10.5 °C 9.3 °C 1007.3 hPa South 33.1 km/h 62.3 km/h 92% 13.5 mm 15 W/m2
12:52 10.5 °C 9.1 °C 1007.3 hPa South 39.3 km/h 72.4 km/h 91% 13.7 mm 18 W/m2
12:56 10.5 °C 8.9 °C 1007.7 hPa South 37.8 km/h 72.4 km/h 90% 13.5 mm 17 W/m2
13:02 10.4 °C 8.5 °C 1007.7 hPa South 35.6 km/h 67.3 km/h 88% 13.2 mm 13 W/m2
13:08 10.3 °C 8.1 °C 1008.0 hPa South 34.3 km/h 67.3 km/h 86% 12.7 mm 12 W/m2
13:12 10.4 °C 8.2 °C 1008.0 hPa SSW 29.4 km/h 58.7 km/h 86% 11.7 mm 20 W/m2
13:18 10.4 °C 8.0 °C 1008.4 hPa South 39.3 km/h 63.7 km/h 85% 11.2 mm 19 W/m2
13:23 10.3 °C 7.9 °C 1008.4 hPa South 30.6 km/h 63.7 km/h 85% 10.4 mm 23 W/m2
13:28 10.3 °C 7.9 °C 1008.4 hPa South 35.6 km/h 62.3 km/h 85% 9.4 mm 24 W/m2
13:33 10.3 °C 7.7 °C 1008.4 hPa South 24.5 km/h 57.6 km/h 84% 8.1 mm 31 W/m2
13:38 10.4 °C 7.8 °C 1008.4 hPa South 40.4 km/h 57.6 km/h 84% 8.1 mm 19 W/m2
13:43 10.4 °C 7.7 °C 1008.4 hPa South 33.1 km/h 64.8 km/h 83% 8.1 mm 22 W/m2
13:48 10.3 °C 7.6 °C 1008.7 hPa South 29.4 km/h 64.8 km/h 83% 8.1 mm 28 W/m2
13:53 10.4 °C 7.7 °C 1008.7 hPa South 36.7 km/h 57.6 km/h 83% 7.6 mm 31 W/m2
13:58 10.3 °C 7.6 °C 1008.7 hPa South 37.8 km/h 60.2 km/h 83% 7.1 mm 21 W/m2
14:03 10.2 °C 7.4 °C 1008.7 hPa South 30.6 km/h 60.2 km/h 83% 6.9 mm 20 W/m2
14:08 10.1 °C 7.5 °C 1009.0 hPa South 31.7 km/h 54.1 km/h 84% 6.9 mm 20 W/m2
14:13 10.0 °C 7.2 °C 1009.0 hPa South 30.6 km/h 54.1 km/h 83% 6.9 mm 16 W/m2
14:18 9.8 °C 7.4 °C 1009.4 hPa South 34.3 km/h 56.2 km/h 85% 7.1 mm 20 W/m2
14:23 9.9 °C 7.3 °C 1009.0 hPa South 37.8 km/h 57.6 km/h 84% 6.6 mm 21 W/m2
14:27 9.9 °C 7.3 °C 1009.0 hPa South 35.6 km/h 57.6 km/h 84% 6.6 mm 7 W/m2
14:32 10.1 °C 6.6 °C 1009.0 hPa South 30.6 km/h 62.3 km/h 79% 7.1 mm 13 W/m2
14:38 10.2 °C 6.3 °C 1009.0 hPa South 28.0 km/h 62.3 km/h 77% 7.1 mm 12 W/m2
14:43 10.4 °C 7.1 °C 1009.4 hPa South 34.3 km/h 52.6 km/h 80% 6.9 mm 16 W/m2
14:47 10.5 °C 7.0 °C 1009.4 hPa SSE 36.7 km/h 54.1 km/h 79% 6.6 mm 16 W/m2
14:53 10.7 °C 7.2 °C 1009.4 hPa SSE 35.6 km/h 54.1 km/h 79% 6.3 mm 7 W/m2
14:58 10.5 °C 7.7 °C 1009.4 hPa South 33.1 km/h 58.7 km/h 83% 6.6 mm 6 W/m2
15:03 10.5 °C 7.9 °C 1009.7 hPa South 29.4 km/h 58.7 km/h 84% 6.6 mm 7 W/m2
15:08 10.7 °C 8.1 °C 1009.4 hPa South 29.4 km/h 51.5 km/h 84% 6.1 mm 10 W/m2
15:12 10.8 °C 8.1 °C 1009.7 hPa South 24.5 km/h 55.0 km/h 83% 5.6 mm 6 W/m2
15:18 10.9 °C 7.8 °C 1009.7 hPa South 27.0 km/h 55.0 km/h 81% 4.8 mm 5 W/m2
15:23 11.0 °C 7.9 °C 1009.7 hPa South 35.6 km/h 52.6 km/h 81% 4.8 mm 9 W/m2
15:28 11.2 °C 6.9 °C 1010.0 hPa South 35.6 km/h 73.4 km/h 75% 4.6 mm 14 W/m2
15:32 11.3 °C 6.8 °C 1009.7 hPa South 29.4 km/h 73.4 km/h 74% 3.6 mm 8 W/m2
15:38 11.5 °C 6.2 °C 1010.0 hPa South 36.7 km/h 55.0 km/h 70% 3.3 mm 6 W/m2
15:43 11.7 °C 6.2 °C 1010.0 hPa SSW 41.7 km/h 58.7 km/h 69% 3.0 mm 11 W/m2
15:48 11.7 °C 6.2 °C 1010.0 hPa SSW 43.9 km/h 58.7 km/h 69% 2.8 mm 11 W/m2
15:53 11.8 °C 6.3 °C 1010.0 hPa South 30.6 km/h 60.2 km/h 69% 2.3 mm 5 W/m2
15:58 11.6 °C 6.3 °C 1010.4 hPa South 29.4 km/h 60.2 km/h 70% 1.5 mm 2 W/m2
16:02 11.7 °C 6.8 °C 1010.4 hPa South 33.1 km/h 51.5 km/h 72% 1.3 mm 4 W/m2
16:08 11.7 °C 7.0 °C 1010.4 hPa South 29.4 km/h 51.5 km/h 73% 1.0 mm 9 W/m2
16:13 11.7 °C 7.2 °C 1010.4 hPa South 30.6 km/h 47.9 km/h 74% 0.5 mm 6 W/m2
16:18 11.6 °C 7.1 °C 1010.7 hPa South 27.0 km/h 47.9 km/h 74% 0.5 mm 12 W/m2
16:23 11.6 °C 7.1 °C 1010.7 hPa SSE 29.4 km/h 46.5 km/h 74% 0.3 mm 11 W/m2
16:27 11.6 °C 6.9 °C 1010.7 hPa South 37.8 km/h 51.5 km/h 73% 0.0 mm 10 W/m2
16:32 11.6 °C 7.1 °C 1010.7 hPa SSW 33.1 km/h 51.5 km/h 74% 0.0 mm 9 W/m2
16:38 11.5 °C 7.4 °C 1010.7 hPa SSW 29.4 km/h 51.5 km/h 76% 0.0 mm 10 W/m2
16:42 11.4 °C 7.5 °C 1011.1 hPa South 25.6 km/h 48.9 km/h 77% 0.0 mm 4 W/m2
16:48 11.3 °C 7.4 °C 1011.1 hPa South 24.5 km/h 48.9 km/h 77% 0.0 mm 1 W/m2
16:53 11.4 °C 7.3 °C 1011.4 hPa South 35.6 km/h 45.4 km/h 76% 0.0 mm 0 W/m2
16:57 11.6 °C 7.3 °C 1011.4 hPa South 25.6 km/h 46.5 km/h 75% 0.0 mm 0 W/m2
17:02 11.6 °C 7.3 °C 1011.4 hPa South 31.7 km/h 47.9 km/h 75% 0.0 mm 0 W/m2
17:08 11.6 °C 7.7 °C 1011.4 hPa South 23.3 km/h 47.9 km/h 77% 0.0 mm 0 W/m2
17:12 11.7 °C 7.0 °C 1011.4 hPa South 20.9 km/h 52.6 km/h 73% 0.3 mm 0 W/m2
17:17 11.7 °C 6.6 °C 1011.4 hPa South 24.5 km/h 52.6 km/h 71% 0.3 mm 0 W/m2
17:21 11.7 °C 6.8 °C 1011.7 hPa South 31.7 km/h 51.5 km/h 72% 0.3 mm 0 W/m2
17:26 11.7 °C 7.2 °C 1012.1 hPa South 31.7 km/h 43.9 km/h 74% 0.3 mm 0 W/m2
17:31 11.7 °C 7.2 °C 1012.1 hPa SSW 24.5 km/h 45.4 km/h 74% 0.3 mm 0 W/m2
17:36 11.6 °C 7.1 °C 1011.7 hPa South 34.3 km/h 47.9 km/h 74% 0.3 mm 0 W/m2
17:41 11.7 °C 7.0 °C 1012.1 hPa South 21.9 km/h 50.0 km/h 73% 0.3 mm 0 W/m2
17:46 11.6 °C 7.1 °C 1012.1 hPa South 15.8 km/h 50.0 km/h 74% 0.3 mm 0 W/m2
17:52 11.4 °C 7.5 °C 1012.1 hPa South 27.0 km/h 55.0 km/h 77% 0.3 mm 0 W/m2
17:56 10.9 °C 8.1 °C 1012.4 hPa South 29.4 km/h 55.0 km/h 83% 0.3 mm 0 W/m2
18:01 11.1 °C 8.2 °C 1012.4 hPa South 24.5 km/h 37.8 km/h 82% 0.3 mm 0 W/m2
18:06 11.3 °C 7.2 °C 1012.4 hPa South 24.5 km/h 43.9 km/h 76% 0.3 mm 0 W/m2
18:11 11.3 °C 7.2 °C 1012.4 hPa South 23.3 km/h 43.9 km/h 76% 0.0 mm 0 W/m2
18:16 11.4 °C 8.3 °C 1012.8 hPa South 24.5 km/h 41.7 km/h 81% 0.0 mm 0 W/m2
18:21 11.1 °C 8.2 °C 1012.8 hPa South 21.9 km/h 45.4 km/h 82% 0.0 mm 0 W/m2
18:27 10.9 °C 8.5 °C 1012.8 hPa South 23.3 km/h 45.4 km/h 85% 0.0 mm 0 W/m2
18:32 10.9 °C 8.7 °C 1012.8 hPa SSW 20.9 km/h 41.7 km/h 86% 0.0 mm 0 W/m2
18:36 11.1 °C 8.2 °C 1012.8 hPa SSW 35.6 km/h 47.9 km/h 82% 0.0 mm 0 W/m2
18:41 10.4 °C 8.3 °C 1013.1 hPa South 33.1 km/h 48.9 km/h 87% 0.3 mm 0 W/m2
18:47 10.0 °C 8.3 °C 1013.1 hPa South 21.9 km/h 52.6 km/h 89% 0.3 mm 0 W/m2
18:51 10.0 °C 8.4 °C 1013.1 hPa South 27.0 km/h 52.6 km/h 90% 0.3 mm 0 W/m2
18:56 10.3 °C 8.6 °C 1013.1 hPa South 31.7 km/h 52.6 km/h 89% 0.5 mm 0 W/m2
19:01 10.2 °C 8.3 °C 1013.1 hPa SSW 20.9 km/h 52.6 km/h 88% 0.5 mm 0 W/m2
19:06 10.3 °C 8.6 °C 1013.4 hPa SSW 27.0 km/h 52.6 km/h 89% 0.5 mm 0 W/m2
19:12 10.1 °C 8.4 °C 1013.4 hPa South 25.6 km/h 41.7 km/h 89% 0.5 mm 0 W/m2
19:16 10.1 °C 8.4 °C 1013.4 hPa South 19.5 km/h 41.7 km/h 89% 0.5 mm 0 W/m2
19:21 10.3 °C 8.6 °C 1013.4 hPa South 24.5 km/h 48.9 km/h 89% 0.5 mm 0 W/m2
19:26 10.5 °C 8.4 °C 1013.4 hPa South 21.9 km/h 48.9 km/h 87% 0.5 mm 0 W/m2
19:31 10.6 °C 8.6 °C 1013.4 hPa South 25.6 km/h 36.7 km/h 87% 0.5 mm 0 W/m2
19:36 10.7 °C 8.4 °C 1013.4 hPa South 25.6 km/h 41.7 km/h 86% 0.5 mm 0 W/m2
19:41 10.9 °C 8.3 °C 1013.8 hPa SSW 29.4 km/h 41.7 km/h 84% 0.3 mm 0 W/m2
19:46 10.5 °C 7.9 °C 1013.8 hPa SSW 20.9 km/h 40.4 km/h 84% 0.3 mm 0 W/m2
19:52 10.5 °C 8.1 °C 1013.8 hPa SSW 20.9 km/h 39.3 km/h 85% 0.3 mm 0 W/m2
19:56 10.6 °C 8.2 °C 1013.8 hPa SSW 25.6 km/h 42.8 km/h 85% 0.0 mm 0 W/m2
20:01 10.7 °C 8.1 °C 1013.8 hPa South 25.6 km/h 42.8 km/h 84% 0.0 mm 0 W/m2
20:06 10.5 °C 8.3 °C 1014.1 hPa South 20.9 km/h 41.7 km/h 86% 0.3 mm 0 W/m2
20:11 10.6 °C 8.6 °C 1014.1 hPa South 18.3 km/h 36.7 km/h 87% 0.3 mm 0 W/m2
20:16 10.7 °C 8.4 °C 1014.1 hPa South 27.0 km/h 42.8 km/h 86% 0.3 mm 0 W/m2
20:21 10.8 °C 8.2 °C 1014.1 hPa South 24.5 km/h 42.8 km/h 84% 0.3 mm 0 W/m2
20:26 10.9 °C 8.1 °C 1014.1 hPa South 18.3 km/h 40.4 km/h 83% 0.3 mm 0 W/m2
20:31 10.7 °C 8.1 °C 1014.4 hPa SSW 20.9 km/h 36.7 km/h 84% 0.3 mm 0 W/m2
20:36 10.7 °C 8.3 °C 1014.4 hPa SSW 28.0 km/h 35.6 km/h 85% 0.3 mm 0 W/m2
20:41 11.1 °C 8.2 °C 1014.4 hPa SSW 27.0 km/h 39.3 km/h 82% 0.3 mm 0 W/m2
20:46 11.1 °C 7.6 °C 1014.4 hPa SSW 25.6 km/h 42.8 km/h 79% 0.3 mm 0 W/m2
20:51 11.2 °C 6.9 °C 1014.4 hPa South 23.3 km/h 42.8 km/h 75% 0.3 mm 0 W/m2
20:56 11.2 °C 7.3 °C 1014.4 hPa South 14.8 km/h 39.3 km/h 77% 0.3 mm 0 W/m2
21:01 11.0 °C 7.7 °C 1014.4 hPa South 19.5 km/h 39.3 km/h 80% 0.3 mm 0 W/m2
21:06 10.9 °C 7.9 °C 1014.4 hPa South 19.5 km/h 30.6 km/h 82% 0.0 mm 0 W/m2
21:11 11.1 °C 7.8 °C 1014.4 hPa South 20.9 km/h 35.6 km/h 80% 0.0 mm 0 W/m2
21:31 11.2 °C 7.3 °C 1014.4 hPa SSW 21.9 km/h 33.1 km/h 77% 0.0 mm 0 W/m2
21:36 11.3 °C 7.6 °C 1014.4 hPa SSW 18.3 km/h 33.1 km/h 78% 0.0 mm 0 W/m2
21:41 11.4 °C 7.9 °C 1014.4 hPa South 25.6 km/h 45.4 km/h 79% 0.0 mm 0 W/m2
21:46 11.4 °C 7.7 °C 1014.8 hPa SSW 23.3 km/h 45.4 km/h 78% 0.0 mm 0 W/m2
21:53 11.3 °C 8.3 °C 1014.8 hPa South 15.8 km/h 40.2 km/h 82% 0.0 mm 0 W/m2
21:58 11.1 °C 8.3 °C 1014.8 hPa SSW 17.2 km/h 34.3 km/h 83% 0.0 mm 0 W/m2
22:04 10.9 °C 8.1 °C 1014.8 hPa South 25.6 km/h 35.6 km/h 83% 0.0 mm 0 W/m2
22:08 10.8 °C 8.1 °C 1014.8 hPa South 23.3 km/h 35.6 km/h 83% 0.0 mm 0 W/m2
22:13 10.7 °C 8.3 °C 1015.1 hPa South 21.9 km/h 35.6 km/h 85% 0.0 mm 0 W/m2
22:19 10.9 °C 8.3 °C 1015.1 hPa SSW 24.5 km/h 43.9 km/h 84% 0.0 mm 0 W/m2
22:24 10.8 °C 8.4 °C 1015.1 hPa SSW 18.3 km/h 43.9 km/h 85% 0.0 mm 0 W/m2
22:29 10.7 °C 8.4 °C 1015.1 hPa SSW 18.3 km/h 41.7 km/h 86% 0.0 mm 0 W/m2
22:34 10.7 °C 8.4 °C 1015.5 hPa SSW 21.9 km/h 31.7 km/h 86% 0.0 mm 0 W/m2
22:39 10.5 °C 8.3 °C 1015.5 hPa SW 20.9 km/h 35.6 km/h 86% 0.0 mm 0 W/m2
22:43 10.5 °C 8.4 °C 1015.5 hPa SW 15.8 km/h 35.6 km/h 87% 0.0 mm 0 W/m2
22:49 10.8 °C 8.2 °C 1015.5 hPa South 15.8 km/h 34.3 km/h 84% 0.0 mm 0 W/m2
22:53 10.8 °C 8.2 °C 1015.8 hPa SSW 15.8 km/h 33.1 km/h 84% 0.0 mm 0 W/m2
22:59 10.6 °C 8.0 °C 1015.5 hPa SSW 18.3 km/h 29.4 km/h 84% 0.0 mm 0 W/m2
23:04 10.7 °C 8.1 °C 1015.8 hPa South 20.9 km/h 39.3 km/h 84% 0.0 mm 0 W/m2
23:09 10.9 °C 8.3 °C 1015.8 hPa SSW 15.8 km/h 39.3 km/h 84% 0.0 mm 0 W/m2
23:14 10.7 °C 8.3 °C 1015.5 hPa SSW 13.4 km/h 30.6 km/h 85% 0.0 mm 0 W/m2
23:19 10.6 °C 8.2 °C 1015.8 hPa SSW 20.9 km/h 29.4 km/h 85% 0.0 mm 0 W/m2
23:24 10.6 °C 8.3 °C 1016.1 hPa SSW 20.9 km/h 39.3 km/h 86% 0.0 mm 0 W/m2
23:29 10.5 °C 8.4 °C 1015.8 hPa SSW 14.8 km/h 39.3 km/h 87% 0.0 mm 0 W/m2
23:33 10.2 °C 8.4 °C 1016.1 hPa SW 19.5 km/h 40.4 km/h 89% 0.0 mm 0 W/m2
23:39 10.1 °C 8.6 °C 1016.1 hPa SW 27.0 km/h 42.8 km/h 90% 0.0 mm 0 W/m2
23:44 9.9 °C 8.5 °C 1016.1 hPa South 14.8 km/h 42.8 km/h 91% 0.3 mm 0 W/m2
23:49 10.2 °C 8.6 °C 1016.5 hPa SSW 14.8 km/h 36.7 km/h 90% 0.3 mm 0 W/m2
23:54 10.3 °C 8.7 °C 1016.5 hPa SSW 15.8 km/h 33.1 km/h 90% 0.3 mm 0 W/m2
23:59 10.2 °C 8.6 °C 1016.5 hPa SSW 11.1 km/h 29.4 km/h 90% 0.3 mm 0 W/m2
Northern Hawkes Bay. New Zealand Historic Data
Compliments of Weather Underground - 2.25 mb